createdAt,value
2019-05-01T00:03:14.033Z,100.00
2019-05-01T00:08:17.267Z,100.00
2019-05-01T00:13:19.059Z,100.00
2019-05-01T00:18:23.083Z,100.00
2019-05-01T00:23:25.104Z,100.00
2019-05-01T00:28:26.909Z,100.00
2019-05-01T00:33:28.820Z,100.00
2019-05-01T00:38:30.753Z,100.00
2019-05-01T00:43:32.603Z,100.00
2019-05-01T00:48:34.499Z,100.00
2019-05-01T00:53:36.682Z,100.00
2019-05-01T00:59:01.041Z,100.00
2019-05-01T01:04:03.274Z,100.00
2019-05-01T01:09:06.196Z,100.00
2019-05-01T01:14:08.100Z,100.00
2019-05-01T01:19:14.295Z,100.00
2019-05-01T01:24:16.493Z,100.00
2019-05-01T01:29:21.474Z,100.00
2019-05-01T01:34:25.760Z,100.00
2019-05-01T01:39:27.671Z,100.00
2019-05-01T01:44:38.487Z,100.00
2019-05-01T01:49:40.374Z,100.00
2019-05-01T01:54:42.537Z,100.00
2019-05-01T01:59:44.944Z,100.00
2019-05-01T02:05:05.465Z,100.00
2019-05-01T02:10:07.930Z,100.00
2019-05-01T02:15:09.787Z,100.00
2019-05-01T02:20:12.475Z,100.00
2019-05-01T02:25:15.271Z,100.00
2019-05-01T02:30:19.008Z,100.00
2019-05-01T02:35:22.003Z,100.00
2019-05-01T02:40:48.060Z,100.00
2019-05-01T02:45:56.125Z,100.00
2019-05-01T02:51:02.269Z,100.00
2019-05-01T02:56:34.664Z,100.00
2019-05-01T03:01:46.264Z,100.00
2019-05-01T03:06:41.557Z,100.00
2019-05-01T03:11:46.049Z,100.00
2019-05-01T03:16:51.776Z,100.00
2019-05-01T03:22:03.338Z,100.00
2019-05-01T03:27:05.637Z,100.00
2019-05-01T03:32:19.041Z,100.00
2019-05-01T03:37:12.921Z,100.00
2019-05-01T03:42:15.978Z,100.00
2019-05-01T03:47:18.257Z,100.00
2019-05-01T03:52:20.863Z,100.00
2019-05-01T03:57:22.775Z,100.00
2019-05-01T04:02:45.254Z,100.00
2019-05-01T04:07:47.338Z,100.00
2019-05-01T04:12:49.321Z,100.00
2019-05-01T04:17:55.739Z,100.00
2019-05-01T04:22:57.877Z,100.00
2019-05-01T04:28:03.335Z,100.00
2019-05-01T04:33:08.650Z,100.00
2019-05-01T04:38:10.953Z,100.00
2019-05-01T04:43:12.845Z,100.00
2019-05-01T04:48:14.747Z,100.00
2019-05-01T04:53:17.697Z,100.00
2019-05-01T04:58:19.687Z,100.00
2019-05-01T05:03:23.572Z,100.00
2019-05-01T05:08:25.464Z,100.00
2019-05-01T05:13:32.391Z,100.00
2019-05-01T05:18:34.418Z,100.00
2019-05-01T05:23:36.778Z,100.00
2019-05-01T05:28:38.991Z,100.00
2019-05-01T05:33:43.606Z,100.00
2019-05-01T05:39:00.005Z,100.00
2019-05-01T05:44:07.142Z,100.00
2019-05-01T05:49:11.655Z,100.00
2019-05-01T05:54:37.019Z,100.00
2019-05-01T05:59:44.780Z,100.00
2019-05-01T06:05:16.204Z,100.00
2019-05-01T06:10:33.201Z,100.00
2019-05-01T06:16:03.330Z,100.00
2019-05-01T06:21:24.703Z,100.00
2019-05-01T06:26:32.260Z,100.00
2019-05-01T06:31:32.928Z,100.00
2019-05-01T06:36:35.070Z,100.00
2019-05-01T06:41:42.965Z,100.00
2019-05-01T06:47:08.150Z,100.00
2019-05-01T06:52:11.902Z,100.00
2019-05-01T06:57:14.101Z,100.00
2019-05-01T07:02:20.875Z,100.00
2019-05-01T07:07:25.538Z,100.00
2019-05-01T07:12:30.031Z,100.00
2019-05-01T07:17:32.632Z,100.00
2019-05-01T07:22:37.152Z,100.00
2019-05-01T07:27:40.594Z,100.00
2019-05-01T07:32:42.786Z,100.00
2019-05-01T07:37:45.015Z,100.00
2019-05-01T07:42:49.678Z,100.00
2019-05-01T07:47:52.119Z,100.00
2019-05-01T07:52:54.075Z,100.00
2019-05-01T07:57:57.194Z,100.00
2019-05-01T08:03:02.588Z,100.00
2019-05-01T08:08:07.422Z,100.00
2019-05-01T08:13:06.758Z,100.00
2019-05-01T08:18:36.188Z,100.00
2019-05-01T08:23:37.669Z,100.00
2019-05-01T08:29:03.057Z,100.00
2019-05-01T08:34:08.029Z,100.00
2019-05-01T08:39:13.920Z,100.00
2019-05-01T08:44:18.385Z,100.00
2019-05-01T08:49:52.919Z,100.00
2019-05-01T08:54:55.018Z,100.00
2019-05-01T09:00:00.275Z,100.00
2019-05-01T09:05:02.831Z,100.00
2019-05-01T09:10:08.935Z,94.20
2019-05-01T09:15:12.677Z,90.03
2019-05-01T09:20:16.673Z,92.62
2019-05-01T09:25:26.199Z,97.33
2019-05-01T09:30:34.231Z,100.00
2019-05-01T09:35:40.181Z,97.23
2019-05-01T09:40:40.177Z,100.00
2019-05-01T09:45:44.889Z,97.39
2019-05-01T09:50:52.815Z,92.13
2019-05-01T09:56:03.231Z,92.02
2019-05-01T10:01:07.339Z,95.58
2019-05-01T10:06:12.847Z,90.13
2019-05-01T10:11:14.974Z,87.12
2019-05-01T10:16:17.084Z,89.89
2019-05-01T10:21:22.403Z,90.65
2019-05-01T10:26:27.234Z,86.79
2019-05-01T10:31:47.749Z,90.96
2019-05-01T10:36:54.644Z,98.31
2019-05-01T10:41:54.527Z,91.79
2019-05-01T10:47:01.865Z,85.10
2019-05-01T10:52:13.606Z,91.37
2019-05-01T10:57:07.016Z,91.03
2019-05-01T11:02:11.097Z,93.98
2019-05-01T11:07:13.026Z,92.12
2019-05-01T11:12:14.828Z,94.89
2019-05-01T11:17:16.784Z,96.69
2019-05-01T11:22:22.685Z,94.75
2019-05-01T11:27:25.042Z,87.75
2019-05-01T11:32:35.677Z,94.58
2019-05-01T11:38:04.276Z,87.98
2019-05-01T11:43:10.060Z,98.11
2019-05-01T11:48:11.971Z,93.17
2019-05-01T11:53:16.074Z,96.16
2019-05-01T11:58:17.961Z,100.00
2019-05-01T12:03:19.880Z,100.00
2019-05-01T12:08:21.852Z,100.00
2019-05-01T12:13:24.785Z,100.00
2019-05-01T12:18:26.671Z,100.00
2019-05-01T12:23:28.539Z,100.00
2019-05-01T12:28:30.349Z,100.00
2019-05-01T12:33:37.567Z,100.00
2019-05-01T12:38:39.465Z,100.00
2019-05-01T12:43:41.469Z,100.00
2019-05-01T12:48:44.389Z,100.00
2019-05-01T12:54:03.906Z,100.00
2019-05-01T12:59:08.126Z,100.00
2019-05-01T13:04:09.995Z,100.00
2019-05-01T13:09:11.911Z,100.00
2019-05-01T13:14:13.886Z,100.00
2019-05-01T13:19:15.807Z,100.00
2019-05-01T13:24:17.919Z,100.00
2019-05-01T13:29:25.355Z,100.00
2019-05-01T13:34:27.400Z,98.19
2019-05-01T13:39:29.291Z,95.21
2019-05-01T13:44:33.820Z,100.00
2019-05-01T13:49:35.527Z,100.00
2019-05-01T13:54:37.465Z,100.00
2019-05-01T13:59:39.380Z,100.00
2019-05-01T14:04:44.231Z,100.00
2019-05-01T14:09:48.522Z,100.00
2019-05-01T14:14:50.410Z,100.00
2019-05-01T14:20:02.558Z,100.00
2019-05-01T14:25:05.809Z,100.00
2019-05-01T14:30:10.291Z,100.00
2019-05-01T14:35:12.441Z,100.00
2019-05-01T14:40:14.527Z,100.00
2019-05-01T14:45:16.419Z,100.00
2019-05-01T14:50:18.204Z,100.00
2019-05-01T14:55:20.123Z,100.00
2019-05-01T15:00:22.354Z,100.00
2019-05-01T15:05:25.811Z,100.00
2019-05-01T15:10:27.592Z,100.00
2019-05-01T15:15:49.036Z,100.00
2019-05-01T15:20:50.848Z,100.00
2019-05-01T15:25:53.086Z,100.00
2019-05-01T15:30:54.998Z,100.00
2019-05-01T15:35:57.008Z,100.00
2019-05-01T15:41:08.431Z,100.00
2019-05-01T15:46:10.418Z,100.00
2019-05-01T15:51:14.677Z,100.00
2019-05-01T15:56:16.520Z,100.00
2019-05-01T16:01:19.503Z,100.00
2019-05-01T16:06:21.523Z,100.00
2019-05-01T16:11:49.198Z,100.00
2019-05-01T16:16:51.578Z,100.00
2019-05-01T16:21:53.575Z,100.00
2019-05-01T16:26:55.307Z,100.00
2019-05-01T16:31:57.200Z,100.00
2019-05-01T16:36:59.214Z,100.00
2019-05-01T16:42:01.197Z,100.00
2019-05-01T16:47:03.210Z,100.00
2019-05-01T16:52:06.990Z,100.00
2019-05-01T16:57:11.853Z,100.00
2019-05-01T17:02:42.500Z,100.00
2019-05-01T17:07:56.290Z,100.00
2019-05-01T17:12:58.091Z,100.00
2019-05-01T17:18:00.179Z,100.00
2019-05-01T17:23:02.123Z,100.00
2019-05-01T17:28:08.231Z,100.00
2019-05-01T17:33:08.580Z,100.00
2019-05-01T17:38:10.361Z,100.00
2019-05-01T17:43:15.489Z,100.00
2019-05-01T17:48:17.594Z,100.00
2019-05-01T17:53:19.670Z,100.00
2019-05-01T17:58:21.555Z,100.00
2019-05-01T18:03:39.135Z,100.00
2019-05-01T18:08:41.032Z,100.00
2019-05-01T18:13:42.852Z,100.00
2019-05-01T18:18:44.740Z,100.00
2019-05-01T18:24:02.112Z,100.00
2019-05-01T18:29:17.577Z,100.00
2019-05-01T18:34:22.407Z,100.00
2019-05-01T18:39:43.946Z,100.00
2019-05-01T18:44:47.578Z,100.00
2019-05-01T18:49:50.176Z,100.00
2019-05-01T18:54:52.203Z,100.00
2019-05-01T18:59:54.157Z,100.00
2019-05-01T19:04:56.135Z,100.00
2019-05-01T19:10:00.067Z,100.00
2019-05-01T19:15:05.520Z,100.00
2019-05-01T19:20:06.064Z,100.00
2019-05-01T19:25:10.919Z,100.00
2019-05-01T19:30:14.910Z,100.00
2019-05-01T19:35:16.699Z,100.00
2019-05-01T19:40:18.546Z,100.00
2019-05-01T19:45:20.573Z,100.00
2019-05-01T19:50:24.673Z,100.00
2019-05-01T19:55:26.533Z,100.00
2019-05-01T20:00:53.573Z,100.00
2019-05-01T20:05:59.643Z,100.00
2019-05-01T20:10:59.405Z,100.00
2019-05-01T20:16:01.294Z,100.00
2019-05-01T20:21:04.955Z,100.00
2019-05-01T20:26:07.131Z,100.00
2019-05-01T20:31:09.081Z,100.00
2019-05-01T20:36:10.984Z,100.00
2019-05-01T20:41:15.804Z,100.00
2019-05-01T20:46:21.505Z,100.00
2019-05-01T20:51:24.391Z,100.00
2019-05-01T20:56:46.096Z,100.00
2019-05-01T21:01:48.040Z,100.00
2019-05-01T21:07:09.652Z,100.00
2019-05-01T21:12:11.506Z,100.00
2019-05-01T21:17:16.197Z,100.00
2019-05-01T21:22:18.107Z,100.00
2019-05-01T21:27:19.930Z,100.00
2019-05-01T21:32:26.149Z,100.00
2019-05-01T21:37:26.722Z,100.00
2019-05-01T21:42:28.803Z,100.00
2019-05-01T21:47:30.746Z,100.00
2019-05-01T21:52:33.254Z,100.00
2019-05-01T21:57:38.693Z,100.00
2019-05-01T22:02:41.511Z,100.00
2019-05-01T22:07:43.526Z,100.00
2019-05-01T22:12:49.006Z,100.00
2019-05-01T22:18:00.130Z,100.00
2019-05-01T22:23:06.245Z,100.00
2019-05-01T22:28:13.968Z,100.00
2019-05-01T22:33:17.982Z,100.00
2019-05-01T22:38:19.981Z,100.00
2019-05-01T22:43:22.180Z,100.00
2019-05-01T22:48:27.131Z,100.00
2019-05-01T22:53:29.072Z,100.00
2019-05-01T22:58:33.694Z,100.00
2019-05-01T23:03:42.445Z,100.00
2019-05-01T23:08:44.669Z,100.00
2019-05-01T23:13:46.588Z,100.00
2019-05-01T23:18:51.914Z,100.00
2019-05-01T23:23:56.922Z,100.00
2019-05-01T23:28:58.827Z,100.00
2019-05-01T23:34:00.890Z,100.00
2019-05-01T23:39:04.630Z,100.00
2019-05-01T23:44:06.704Z,100.00
2019-05-01T23:49:08.696Z,100.00
2019-05-01T23:54:10.655Z,100.00
2019-05-01T23:59:12.442Z,100.00
